Cocal, Brazil
Current Conditions -  °F | °C
As of 1:00 PM on Thursday 27 Nov 2014 (Local Time) from SBPB Reporting Station
Few Clouds Few Clouds  
Wind Chill: 91°   Ceiling: Unl
Heat Index: 102°   Visibility: 6mi
Dew Point: 75°   Wind: 21mph
Humidity: 59%   Direction: 60°ENE
Pressure: 29.83"   Gusts: NA
Location:  3.47°S, 41.56°W
Report Text: SBPB 271600Z 06018KT 9999 FEW020 33/24 Q1010
Loading
Personal Weather Stations






























Interactive Weather Map New forecast layout! Learn more

10-Day Weather Forecast

Advertisements
Track Severe Weather on mobile